sensor_id;sensor_type;location;lat;lon;timestamp;temperature;humidity
4904;DHT22;2467;48.142;11.616;2023-03-23T00:00:03;13.20;76.30
4904;DHT22;2467;48.142;11.616;2023-03-23T00:00:36;13.20;76.40
4904;DHT22;2467;48.142;11.616;2023-03-23T00:01:08;13.10;76.50
4904;DHT22;2467;48.142;11.616;2023-03-23T00:01:43;13.10;76.70
4904;DHT22;2467;48.142;11.616;2023-03-23T00:02:14;13.10;77.00
4904;DHT22;2467;48.142;11.616;2023-03-23T00:02:46;13.00;77.10
4904;DHT22;2467;48.142;11.616;2023-03-23T00:03:17;13.00;77.40
4904;DHT22;2467;48.142;11.616;2023-03-23T00:03:50;13.00;77.60
4904;DHT22;2467;48.142;11.616;2023-03-23T00:04:22;13.00;77.80
4904;DHT22;2467;48.142;11.616;2023-03-23T00:04:56;13.00;78.00
4904;DHT22;2467;48.142;11.616;2023-03-23T00:05:29;12.90;78.10
4904;DHT22;2467;48.142;11.616;2023-03-23T00:06:01;13.00;78.30
4904;DHT22;2467;48.142;11.616;2023-03-23T00:06:36;12.90;78.50
4904;DHT22;2467;48.142;11.616;2023-03-23T00:07:07;13.00;78.80
4904;DHT22;2467;48.142;11.616;2023-03-23T00:07:39;13.00;79.00
4904;DHT22;2467;48.142;11.616;2023-03-23T00:08:16;12.90;79.10
4904;DHT22;2467;48.142;11.616;2023-03-23T00:08:48;12.90;79.20
4904;DHT22;2467;48.142;11.616;2023-03-23T00:09:26;12.90;79.50
4904;DHT22;2467;48.142;11.616;2023-03-23T00:09:57;12.90;79.80
4904;DHT22;2467;48.142;11.616;2023-03-23T00:10:29;12.90;80.10
4904;DHT22;2467;48.142;11.616;2023-03-23T00:11:04;12.80;80.20
4904;DHT22;2467;48.142;11.616;2023-03-23T00:11:35;12.80;80.50
4904;DHT22;2467;48.142;11.616;2023-03-23T00:12:06;12.80;80.70
4904;DHT22;2467;48.142;11.616;2023-03-23T00:12:38;12.80;80.80
4904;DHT22;2467;48.142;11.616;2023-03-23T00:13:12;12.80;80.90
4904;DHT22;2467;48.142;11.616;2023-03-23T00:13:44;12.80;81.20
4904;DHT22;2467;48.142;11.616;2023-03-23T00:14:16;12.80;81.50
4904;DHT22;2467;48.142;11.616;2023-03-23T00:14:53;12.70;81.60
4904;DHT22;2467;48.142;11.616;2023-03-23T00:15:24;12.70;81.70
4904;DHT22;2467;48.142;11.616;2023-03-23T00:15:55;12.70;81.90
4904;DHT22;2467;48.142;11.616;2023-03-23T00:16:30;12.70;82.00
4904;DHT22;2467;48.142;11.616;2023-03-23T00:17:02;12.80;82.40
4904;DHT22;2467;48.142;11.616;2023-03-23T00:17:34;12.70;82.80
4904;DHT22;2467;48.142;11.616;2023-03-23T00:18:06;12.70;83.00
4904;DHT22;2467;48.142;11.616;2023-03-23T00:18:37;12.70;83.10
4904;DHT22;2467;48.142;11.616;2023-03-23T00:19:10;12.70;83.20
4904;DHT22;2467;48.142;11.616;2023-03-23T00:19:44;12.70;83.20
4904;DHT22;2467;48.142;11.616;2023-03-23T00:20:18;12.70;83.30
4904;DHT22;2467;48.142;11.616;2023-03-23T00:20:52;12.70;83.40
4904;DHT22;2467;48.142;11.616;2023-03-23T00:21:25;12.70;83.40
4904;DHT22;2467;48.142;11.616;2023-03-23T00:22:04;12.70;83.50
4904;DHT22;2467;48.142;11.616;2023-03-23T00:22:34;12.70;83.70
4904;DHT22;2467;48.142;11.616;2023-03-23T00:23:08;12.70;83.80
4904;DHT22;2467;48.142;11.616;2023-03-23T00:23:40;12.70;84.00
4904;DHT22;2467;48.142;11.616;2023-03-23T00:24:12;12.70;84.10
4904;DHT22;2467;48.142;11.616;2023-03-23T00:24:47;12.70;84.10
4904;DHT22;2467;48.142;11.616;2023-03-23T00:25:18;12.60;84.10
4904;DHT22;2467;48.142;11.616;2023-03-23T00:25:51;12.60;84.30
4904;DHT22;2467;48.142;11.616;2023-03-23T00:26:27;12.60;84.50
4904;DHT22;2467;48.142;11.616;2023-03-23T00:26:59;12.60;84.80
4904;DHT22;2467;48.142;11.616;2023-03-23T00:27:31;12.70;85.10
4904;DHT22;2467;48.142;11.616;2023-03-23T00:28:03;12.60;85.10
4904;DHT22;2467;48.142;11.616;2023-03-23T00:28:34;12.60;85.20
4904;DHT22;2467;48.142;11.616;2023-03-23T00:29:06;12.60;85.50
4904;DHT22;2467;48.142;11.616;2023-03-23T00:29:37;12.60;85.80
4904;DHT22;2467;48.142;11.616;2023-03-23T00:30:10;12.50;86.30
4904;DHT22;2467;48.142;11.616;2023-03-23T00:30:41;12.50;86.80
4904;DHT22;2467;48.142;11.616;2023-03-23T00:31:13;12.60;87.50
4904;DHT22;2467;48.142;11.616;2023-03-23T00:31:45;12.60;87.60
4904;DHT22;2467;48.142;11.616;2023-03-23T00:32:17;12.60;87.60
4904;DHT22;2467;48.142;11.616;2023-03-23T00:32:48;12.60;87.50
4904;DHT22;2467;48.142;11.616;2023-03-23T00:33:21;12.60;87.40
4904;DHT22;2467;48.142;11.616;2023-03-23T00:33:53;12.60;87.30
4904;DHT22;2467;48.142;11.616;2023-03-23T00:34:24;12.60;88.00
4904;DHT22;2467;48.142;11.616;2023-03-23T00:34:56;12.60;87.40
4904;DHT22;2467;48.142;11.616;2023-03-23T00:35:29;12.50;87.50
4904;DHT22;2467;48.142;11.616;2023-03-23T00:36:02;12.60;87.80
4904;DHT22;2467;48.142;11.616;2023-03-23T00:36:34;12.50;87.80
4904;DHT22;2467;48.142;11.616;2023-03-23T00:37:06;12.50;88.00
4904;DHT22;2467;48.142;11.616;2023-03-23T00:37:37;12.50;88.30
4904;DHT22;2467;48.142;11.616;2023-03-23T00:38:09;12.50;88.30
4904;DHT22;2467;48.142;11.616;2023-03-23T00:38:41;12.50;88.40
4904;DHT22;2467;48.142;11.616;2023-03-23T00:39:12;12.50;88.60
4904;DHT22;2467;48.142;11.616;2023-03-23T00:39:43;12.50;88.90
4904;DHT22;2467;48.142;11.616;2023-03-23T00:40:16;12.50;89.00
4904;DHT22;2467;48.142;11.616;2023-03-23T00:40:49;12.40;89.70
4904;DHT22;2467;48.142;11.616;2023-03-23T00:41:20;12.40;89.10
4904;DHT22;2467;48.142;11.616;2023-03-23T00:41:53;12.40;89.30
4904;DHT22;2467;48.142;11.616;2023-03-23T00:42:31;12.40;89.40
4904;DHT22;2467;48.142;11.616;2023-03-23T00:43:07;12.40;89.80
4904;DHT22;2467;48.142;11.616;2023-03-23T00:43:39;12.40;90.00
4904;DHT22;2467;48.142;11.616;2023-03-23T00:44:10;12.40;90.00
4904;DHT22;2467;48.142;11.616;2023-03-23T00:44:47;12.40;90.10
4904;DHT22;2467;48.142;11.616;2023-03-23T00:45:19;12.40;90.10
4904;DHT22;2467;48.142;11.616;2023-03-23T00:45:50;12.40;90.20
4904;DHT22;2467;48.142;11.616;2023-03-23T00:46:23;12.40;90.30
4904;DHT22;2467;48.142;11.616;2023-03-23T00:46:55;12.40;90.30
4904;DHT22;2467;48.142;11.616;2023-03-23T00:47:27;12.40;90.30
4904;DHT22;2467;48.142;11.616;2023-03-23T00:47:58;12.40;90.40
4904;DHT22;2467;48.142;11.616;2023-03-23T00:48:32;12.40;90.40
4904;DHT22;2467;48.142;11.616;2023-03-23T00:49:06;12.40;90.40
4904;DHT22;2467;48.142;11.616;2023-03-23T00:49:37;12.40;90.40
4904;DHT22;2467;48.142;11.616;2023-03-23T00:50:09;12.40;90.40
4904;DHT22;2467;48.142;11.616;2023-03-23T00:50:40;12.40;90.50
4904;DHT22;2467;48.142;11.616;2023-03-23T00:51:12;12.40;90.50
4904;DHT22;2467;48.142;11.616;2023-03-23T00:51:45;12.50;90.60
4904;DHT22;2467;48.142;11.616;2023-03-23T00:52:16;12.40;90.60
4904;DHT22;2467;48.142;11.616;2023-03-23T00:52:47;12.40;90.70
4904;DHT22;2467;48.142;11.616;2023-03-23T00:53:23;12.40;90.70
4904;DHT22;2467;48.142;11.616;2023-03-23T00:53:54;12.40;90.80
4904;DHT22;2467;48.142;11.616;2023-03-23T00:54:25;12.50;90.90
4904;DHT22;2467;48.142;11.616;2023-03-23T00:54:56;12.50;91.00
4904;DHT22;2467;48.142;11.616;2023-03-23T00:55:27;12.50;90.90
4904;DHT22;2467;48.142;11.616;2023-03-23T00:56:01;12.50;90.90
4904;DHT22;2467;48.142;11.616;2023-03-23T00:56:32;12.50;90.80
4904;DHT22;2467;48.142;11.616;2023-03-23T00:57:03;12.60;90.80
4904;DHT22;2467;48.142;11.616;2023-03-23T00:57:35;12.60;90.80
4904;DHT22;2467;48.142;11.616;2023-03-23T00:58:06;12.60;90.70
4904;DHT22;2467;48.142;11.616;2023-03-23T00:58:37;12.60;90.70
4904;DHT22;2467;48.142;11.616;2023-03-23T00:59:09;12.60;90.70
4904;DHT22;2467;48.142;11.616;2023-03-23T00:59:40;12.60;90.70
4904;DHT22;2467;48.142;11.616;2023-03-23T01:00:12;12.70;90.70
4904;DHT22;2467;48.142;11.616;2023-03-23T01:00:44;12.70;90.60
4904;DHT22;2467;48.142;11.616;2023-03-23T01:01:14;12.70;90.50
4904;DHT22;2467;48.142;11.616;2023-03-23T01:01:46;12.70;90.40
4904;DHT22;2467;48.142;11.616;2023-03-23T01:02:18;12.70;90.30
4904;DHT22;2467;48.142;11.616;2023-03-23T01:02:50;12.60;90.20
4904;DHT22;2467;48.142;11.616;2023-03-23T01:03:21;12.70;90.30
4904;DHT22;2467;48.142;11.616;2023-03-23T01:03:57;12.60;90.20
4904;DHT22;2467;48.142;11.616;2023-03-23T01:04:31;12.60;90.30
4904;DHT22;2467;48.142;11.616;2023-03-23T01:05:03;12.60;90.40
4904;DHT22;2467;48.142;11.616;2023-03-23T01:05:36;12.60;90.50
4904;DHT22;2467;48.142;11.616;2023-03-23T01:06:09;12.60;90.60
4904;DHT22;2467;48.142;11.616;2023-03-23T01:06:48;12.60;90.60
4904;DHT22;2467;48.142;11.616;2023-03-23T01:07:21;12.60;90.70
4904;DHT22;2467;48.142;11.616;2023-03-23T01:07:54;12.60;90.70
4904;DHT22;2467;48.142;11.616;2023-03-23T01:08:25;12.60;90.70
4904;DHT22;2467;48.142;11.616;2023-03-23T01:08:57;12.50;90.70
4904;DHT22;2467;48.142;11.616;2023-03-23T01:09:28;12.50;90.80
4904;DHT22;2467;48.142;11.616;2023-03-23T01:09:59;12.50;90.80
4904;DHT22;2467;48.142;11.616;2023-03-23T01:10:32;12.50;90.90
4904;DHT22;2467;48.142;11.616;2023-03-23T01:11:06;12.50;90.90
4904;DHT22;2467;48.142;11.616;2023-03-23T01:11:37;12.50;91.00
4904;DHT22;2467;48.142;11.616;2023-03-23T01:12:09;12.50;91.00
4904;DHT22;2467;48.142;11.616;2023-03-23T01:12:40;12.50;91.00
4904;DHT22;2467;48.142;11.616;2023-03-23T01:13:11;12.50;91.00
4904;DHT22;2467;48.142;11.616;2023-03-23T01:13:43;12.50;91.00
4904;DHT22;2467;48.142;11.616;2023-03-23T01:14:15;12.50;91.00
4904;DHT22;2467;48.142;11.616;2023-03-23T01:14:47;12.60;91.20
4904;DHT22;2467;48.142;11.616;2023-03-23T01:15:19;12.60;91.20
4904;DHT22;2467;48.142;11.616;2023-03-23T01:15:51;12.60;91.30
4904;DHT22;2467;48.142;11.616;2023-03-23T01:16:21;12.60;91.30
4904;DHT22;2467;48.142;11.616;2023-03-23T01:16:53;12.60;91.30
4904;DHT22;2467;48.142;11.616;2023-03-23T01:17:24;12.60;91.20
4904;DHT22;2467;48.142;11.616;2023-03-23T01:17:56;12.70;91.20
4904;DHT22;2467;48.142;11.616;2023-03-23T01:18:28;12.60;91.00
4904;DHT22;2467;48.142;11.616;2023-03-23T01:18:59;12.70;90.90
4904;DHT22;2467;48.142;11.616;2023-03-23T01:19:30;12.70;90.90
4904;DHT22;2467;48.142;11.616;2023-03-23T01:20:02;12.70;90.80
4904;DHT22;2467;48.142;11.616;2023-03-23T01:20:35;12.70;90.80
4904;DHT22;2467;48.142;11.616;2023-03-23T01:21:08;12.60;90.70
4904;DHT22;2467;48.142;11.616;2023-03-23T01:21:40;12.60;90.80
4904;DHT22;2467;48.142;11.616;2023-03-23T01:22:12;12.60;90.80
4904;DHT22;2467;48.142;11.616;2023-03-23T01:22:43;12.60;90.90
4904;DHT22;2467;48.142;11.616;2023-03-23T01:23:15;12.60;91.00
4904;DHT22;2467;48.142;11.616;2023-03-23T01:23:46;12.60;91.00
4904;DHT22;2467;48.142;11.616;2023-03-23T01:24:18;12.60;91.00
4904;DHT22;2467;48.142;11.616;2023-03-23T01:24:49;12.60;91.10
4904;DHT22;2467;48.142;11.616;2023-03-23T01:25:21;12.60;91.20
4904;DHT22;2467;48.142;11.616;2023-03-23T01:25:52;12.60;91.20
4904;DHT22;2467;48.142;11.616;2023-03-23T01:26:26;12.60;91.20
4904;DHT22;2467;48.142;11.616;2023-03-23T01:26:58;12.50;91.20
4904;DHT22;2467;48.142;11.616;2023-03-23T01:27:32;12.60;91.30
4904;DHT22;2467;48.142;11.616;2023-03-23T01:28:03;12.50;91.30
4904;DHT22;2467;48.142;11.616;2023-03-23T01:28:35;12.60;91.40
4904;DHT22;2467;48.142;11.616;2023-03-23T01:29:06;12.60;91.40
4904;DHT22;2467;48.142;11.616;2023-03-23T01:29:37;12.60;91.40
4904;DHT22;2467;48.142;11.616;2023-03-23T01:30:11;12.60;91.40
4904;DHT22;2467;48.142;11.616;2023-03-23T01:30:42;12.60;91.40
4904;DHT22;2467;48.142;11.616;2023-03-23T01:31:15;12.60;91.50
4904;DHT22;2467;48.142;11.616;2023-03-23T01:31:47;12.60;91.40
4904;DHT22;2467;48.142;11.616;2023-03-23T01:32:18;12.60;91.40
4904;DHT22;2467;48.142;11.616;2023-03-23T01:32:49;12.60;91.40
4904;DHT22;2467;48.142;11.616;2023-03-23T01:33:21;12.60;91.30
4904;DHT22;2467;48.142;11.616;2023-03-23T01:33:53;12.60;91.30
4904;DHT22;2467;48.142;11.616;2023-03-23T01:34:25;12.70;91.30
4904;DHT22;2467;48.142;11.616;2023-03-23T01:34:57;12.60;91.20
4904;DHT22;2467;48.142;11.616;2023-03-23T01:35:28;12.60;91.20
4904;DHT22;2467;48.142;11.616;2023-03-23T01:36:02;12.60;91.20
4904;DHT22;2467;48.142;11.616;2023-03-23T01:36:34;12.70;91.20
4904;DHT22;2467;48.142;11.616;2023-03-23T01:37:05;12.60;91.20
4904;DHT22;2467;48.142;11.616;2023-03-23T01:37:38;12.60;91.20
4904;DHT22;2467;48.142;11.616;2023-03-23T01:38:10;12.60;91.40
4904;DHT22;2467;48.142;11.616;2023-03-23T01:38:42;12.60;91.50
4904;DHT22;2467;48.142;11.616;2023-03-23T01:39:12;12.60;91.70
4904;DHT22;2467;48.142;11.616;2023-03-23T01:39:44;12.60;91.80
4904;DHT22;2467;48.142;11.616;2023-03-23T01:40:16;12.60;91.80
4904;DHT22;2467;48.142;11.616;2023-03-23T01:40:47;12.60;91.80
4904;DHT22;2467;48.142;11.616;2023-03-23T01:41:20;12.60;91.70
4904;DHT22;2467;48.142;11.616;2023-03-23T01:41:51;12.60;91.60
4904;DHT22;2467;48.142;11.616;2023-03-23T01:42:23;12.60;91.60
4904;DHT22;2467;48.142;11.616;2023-03-23T01:42:55;12.70;91.60
4904;DHT22;2467;48.142;11.616;2023-03-23T01:43:26;12.70;91.60
4904;DHT22;2467;48.142;11.616;2023-03-23T01:43:59;12.70;91.60
4904;DHT22;2467;48.142;11.616;2023-03-23T01:45:40;12.70;91.60
4904;DHT22;2467;48.142;11.616;2023-03-23T01:46:12;12.70;91.70
4904;DHT22;2467;48.142;11.616;2023-03-23T01:46:43;12.70;91.60
4904;DHT22;2467;48.142;11.616;2023-03-23T01:47:14;12.70;91.70
4904;DHT22;2467;48.142;11.616;2023-03-23T01:47:46;12.70;91.70
4904;DHT22;2467;48.142;11.616;2023-03-23T01:48:23;12.70;91.60
4904;DHT22;2467;48.142;11.616;2023-03-23T01:48:56;12.70;91.50
4904;DHT22;2467;48.142;11.616;2023-03-23T01:49:32;12.70;91.60
4904;DHT22;2467;48.142;11.616;2023-03-23T01:50:05;12.70;91.70
4904;DHT22;2467;48.142;11.616;2023-03-23T01:50:42;12.70;91.70
4904;DHT22;2467;48.142;11.616;2023-03-23T01:51:17;12.70;91.70
4904;DHT22;2467;48.142;11.616;2023-03-23T01:51:51;12.70;91.80
4904;DHT22;2467;48.142;11.616;2023-03-23T01:52:25;12.70;91.80
4904;DHT22;2467;48.142;11.616;2023-03-23T01:53:01;12.70;92.00
4904;DHT22;2467;48.142;11.616;2023-03-23T01:53:37;12.70;92.00
4904;DHT22;2467;48.142;11.616;2023-03-23T01:54:12;12.70;92.10
4904;DHT22;2467;48.142;11.616;2023-03-23T01:54:46;12.70;92.20
4904;DHT22;2467;48.142;11.616;2023-03-23T01:55:18;12.70;92.20
4904;DHT22;2467;48.142;11.616;2023-03-23T01:55:52;12.70;92.20
4904;DHT22;2467;48.142;11.616;2023-03-23T01:56:26;12.70;92.20
4904;DHT22;2467;48.142;11.616;2023-03-23T01:57:03;12.70;92.00
4904;DHT22;2467;48.142;11.616;2023-03-23T01:57:35;12.70;92.00
4904;DHT22;2467;48.142;11.616;2023-03-23T01:58:08;12.70;91.90
4904;DHT22;2467;48.142;11.616;2023-03-23T01:58:40;12.70;91.70
4904;DHT22;2467;48.142;11.616;2023-03-23T01:59:13;12.70;91.70
4904;DHT22;2467;48.142;11.616;2023-03-23T01:59:46;12.70;91.60
4904;DHT22;2467;48.142;11.616;2023-03-23T02:00:19;12.70;91.70
4904;DHT22;2467;48.142;11.616;2023-03-23T02:00:50;12.70;91.70
4904;DHT22;2467;48.142;11.616;2023-03-23T02:01:22;12.70;91.70
4904;DHT22;2467;48.142;11.616;2023-03-23T02:01:55;12.70;91.70
4904;DHT22;2467;48.142;11.616;2023-03-23T02:02:27;12.70;91.70
4904;DHT22;2467;48.142;11.616;2023-03-23T02:02:58;12.80;91.70
4904;DHT22;2467;48.142;11.616;2023-03-23T02:03:32;12.70;91.60
4904;DHT22;2467;48.142;11.616;2023-03-23T02:04:06;12.80;91.60
4904;DHT22;2467;48.142;11.616;2023-03-23T02:04:38;12.80;91.80
4904;DHT22;2467;48.142;11.616;2023-03-23T02:05:15;12.80;91.50
4904;DHT22;2467;48.142;11.616;2023-03-23T02:05:51;12.80;91.40
4904;DHT22;2467;48.142;11.616;2023-03-23T02:06:22;12.80;91.30
4904;DHT22;2467;48.142;11.616;2023-03-23T02:06:54;12.80;91.30
4904;DHT22;2467;48.142;11.616;2023-03-23T02:07:26;12.80;91.20
4904;DHT22;2467;48.142;11.616;2023-03-23T02:07:58;12.80;91.20
4904;DHT22;2467;48.142;11.616;2023-03-23T02:08:35;12.90;91.20
4904;DHT22;2467;48.142;11.616;2023-03-23T02:09:07;12.80;91.30
4904;DHT22;2467;48.142;11.616;2023-03-23T02:09:38;12.80;91.40
4904;DHT22;2467;48.142;11.616;2023-03-23T02:10:09;12.80;91.50
4904;DHT22;2467;48.142;11.616;2023-03-23T02:10:41;12.80;91.50
4904;DHT22;2467;48.142;11.616;2023-03-23T02:11:13;12.80;91.60
4904;DHT22;2467;48.142;11.616;2023-03-23T02:11:46;12.80;91.70
4904;DHT22;2467;48.142;11.616;2023-03-23T02:12:18;12.80;91.90
4904;DHT22;2467;48.142;11.616;2023-03-23T02:12:49;12.80;91.80
4904;DHT22;2467;48.142;11.616;2023-03-23T02:13:20;12.70;91.60
4904;DHT22;2467;48.142;11.616;2023-03-23T02:13:51;12.80;91.50
4904;DHT22;2467;48.142;11.616;2023-03-23T02:14:24;12.70;91.40
4904;DHT22;2467;48.142;11.616;2023-03-23T02:14:56;12.70;91.50
4904;DHT22;2467;48.142;11.616;2023-03-23T02:15:33;12.70;91.50
4904;DHT22;2467;48.142;11.616;2023-03-23T02:16:12;12.70;91.60
4904;DHT22;2467;48.142;11.616;2023-03-23T02:16:50;12.70;91.60
4904;DHT22;2467;48.142;11.616;2023-03-23T02:17:27;12.70;91.60
4904;DHT22;2467;48.142;11.616;2023-03-23T02:18:04;12.60;91.60
4904;DHT22;2467;48.142;11.616;2023-03-23T02:18:46;12.60;91.60
4904;DHT22;2467;48.142;11.616;2023-03-23T02:19:39;12.50;91.60
4904;DHT22;2467;48.142;11.616;2023-03-23T02:20:33;12.60;91.70
4904;DHT22;2467;48.142;11.616;2023-03-23T02:21:27;12.60;91.90
4904;DHT22;2467;48.142;11.616;2023-03-23T02:23:18;12.50;92.10
4904;DHT22;2467;48.142;11.616;2023-03-23T02:24:16;12.50;92.30
4904;DHT22;2467;48.142;11.616;2023-03-23T02:24:58;12.40;92.30
4904;DHT22;2467;48.142;11.616;2023-03-23T02:25:53;12.40;92.40
4904;DHT22;2467;48.142;11.616;2023-03-23T02:26:34;12.40;92.40
4904;DHT22;2467;48.142;11.616;2023-03-23T02:27:14;12.40;92.50
4904;DHT22;2467;48.142;11.616;2023-03-23T02:29:07;12.40;92.70
4904;DHT22;2467;48.142;11.616;2023-03-23T02:30:07;12.40;92.80
4904;DHT22;2467;48.142;11.616;2023-03-23T02:30:49;12.40;92.90
4904;DHT22;2467;48.142;11.616;2023-03-23T02:31:58;12.40;92.90
4904;DHT22;2467;48.142;11.616;2023-03-23T02:33:47;12.40;93.10
4904;DHT22;2467;48.142;11.616;2023-03-23T02:34:24;12.40;93.20
4904;DHT22;2467;48.142;11.616;2023-03-23T02:35:00;12.40;93.30
4904;DHT22;2467;48.142;11.616;2023-03-23T02:35:35;12.40;93.30
4904;DHT22;2467;48.142;11.616;2023-03-23T02:36:13;12.50;93.30
4904;DHT22;2467;48.142;11.616;2023-03-23T02:36:49;12.50;93.30
4904;DHT22;2467;48.142;11.616;2023-03-23T02:37:28;12.50;93.20
4904;DHT22;2467;48.142;11.616;2023-03-23T02:38:04;12.50;93.20
4904;DHT22;2467;48.142;11.616;2023-03-23T02:38:44;12.50;93.20
4904;DHT22;2467;48.142;11.616;2023-03-23T02:39:23;12.60;93.30
4904;DHT22;2467;48.142;11.616;2023-03-23T02:39:57;12.50;93.20
4904;DHT22;2467;48.142;11.616;2023-03-23T02:40:33;12.60;93.30
4904;DHT22;2467;48.142;11.616;2023-03-23T02:41:08;12.60;93.30
4904;DHT22;2467;48.142;11.616;2023-03-23T02:41:43;12.70;93.20
4904;DHT22;2467;48.142;11.616;2023-03-23T02:42:18;12.60;93.00
4904;DHT22;2467;48.142;11.616;2023-03-23T02:42:53;12.60;92.90
4904;DHT22;2467;48.142;11.616;2023-03-23T02:43:27;12.60;92.80
4904;DHT22;2467;48.142;11.616;2023-03-23T02:44:01;12.60;92.70
4904;DHT22;2467;48.142;11.616;2023-03-23T02:44:36;12.60;92.70
4904;DHT22;2467;48.142;11.616;2023-03-23T02:45:10;12.60;92.60
4904;DHT22;2467;48.142;11.616;2023-03-23T02:45:44;12.60;92.60
4904;DHT22;2467;48.142;11.616;2023-03-23T02:46:17;12.60;92.60
4904;DHT22;2467;48.142;11.616;2023-03-23T02:46:49;12.60;92.50
4904;DHT22;2467;48.142;11.616;2023-03-23T02:47:22;12.60;92.50
4904;DHT22;2467;48.142;11.616;2023-03-23T02:47:55;12.60;92.60
4904;DHT22;2467;48.142;11.616;2023-03-23T02:48:29;12.60;92.60
4904;DHT22;2467;48.142;11.616;2023-03-23T02:49:04;12.60;92.70
4904;DHT22;2467;48.142;11.616;2023-03-23T02:49:37;12.70;92.70
4904;DHT22;2467;48.142;11.616;2023-03-23T02:50:13;12.60;92.70
4904;DHT22;2467;48.142;11.616;2023-03-23T02:50:48;12.60;92.70
4904;DHT22;2467;48.142;11.616;2023-03-23T02:51:22;12.70;92.60
4904;DHT22;2467;48.142;11.616;2023-03-23T02:51:56;12.60;92.50
4904;DHT22;2467;48.142;11.616;2023-03-23T02:52:29;12.60;92.50
4904;DHT22;2467;48.142;11.616;2023-03-23T02:53:03;12.60;92.40
4904;DHT22;2467;48.142;11.616;2023-03-23T02:53:41;12.60;92.60
4904;DHT22;2467;48.142;11.616;2023-03-23T02:54:15;12.60;92.30
4904;DHT22;2467;48.142;11.616;2023-03-23T02:54:49;12.60;92.30
4904;DHT22;2467;48.142;11.616;2023-03-23T02:55:22;12.60;92.30
4904;DHT22;2467;48.142;11.616;2023-03-23T02:55:56;12.60;92.50
4904;DHT22;2467;48.142;11.616;2023-03-23T02:56:29;12.60;92.60
4904;DHT22;2467;48.142;11.616;2023-03-23T02:57:00;12.60;92.60
4904;DHT22;2467;48.142;11.616;2023-03-23T02:57:31;12.60;92.60
4904;DHT22;2467;48.142;11.616;2023-03-23T02:58:03;12.60;92.60
4904;DHT22;2467;48.142;11.616;2023-03-23T02:58:36;12.60;92.70
4904;DHT22;2467;48.142;11.616;2023-03-23T02:59:07;12.60;92.80
4904;DHT22;2467;48.142;11.616;2023-03-23T02:59:39;12.60;92.70
4904;DHT22;2467;48.142;11.616;2023-03-23T03:00:14;12.60;92.50
4904;DHT22;2467;48.142;11.616;2023-03-23T03:00:45;12.60;92.40
4904;DHT22;2467;48.142;11.616;2023-03-23T03:01:50;12.60;92.30
4904;DHT22;2467;48.142;11.616;2023-03-23T03:02:27;12.60;92.20
4904;DHT22;2467;48.142;11.616;2023-03-23T03:02:59;12.50;92.10
4904;DHT22;2467;48.142;11.616;2023-03-23T03:03:30;12.50;92.20
4904;DHT22;2467;48.142;11.616;2023-03-23T03:04:06;12.50;92.30
4904;DHT22;2467;48.142;11.616;2023-03-23T03:04:39;12.50;92.40
4904;DHT22;2467;48.142;11.616;2023-03-23T03:05:16;12.50;92.40
4904;DHT22;2467;48.142;11.616;2023-03-23T03:05:58;12.50;92.50
4904;DHT22;2467;48.142;11.616;2023-03-23T03:06:40;12.50;92.60
4904;DHT22;2467;48.142;11.616;2023-03-23T03:07:28;12.50;92.60
4904;DHT22;2467;48.142;11.616;2023-03-23T03:08:12;12.40;92.50
4904;DHT22;2467;48.142;11.616;2023-03-23T03:08:49;12.40;92.60
4904;DHT22;2467;48.142;11.616;2023-03-23T03:09:27;12.40;92.70
4904;DHT22;2467;48.142;11.616;2023-03-23T03:10:02;12.40;92.70
4904;DHT22;2467;48.142;11.616;2023-03-23T03:10:42;12.40;92.70
4904;DHT22;2467;48.142;11.616;2023-03-23T03:11:17;12.40;92.80
4904;DHT22;2467;48.142;11.616;2023-03-23T03:11:51;12.40;92.90
4904;DHT22;2467;48.142;11.616;2023-03-23T03:12:30;12.40;93.00
4904;DHT22;2467;48.142;11.616;2023-03-23T03:13:06;12.40;93.00
4904;DHT22;2467;48.142;11.616;2023-03-23T03:13:45;12.40;93.10
4904;DHT22;2467;48.142;11.616;2023-03-23T03:14:21;12.40;93.10
4904;DHT22;2467;48.142;11.616;2023-03-23T03:15:00;12.40;93.10
4904;DHT22;2467;48.142;11.616;2023-03-23T03:15:36;12.40;93.10
4904;DHT22;2467;48.142;11.616;2023-03-23T03:16:13;12.40;93.00
4904;DHT22;2467;48.142;11.616;2023-03-23T03:16:53;12.40;93.00
4904;DHT22;2467;48.142;11.616;2023-03-23T03:17:29;12.50;93.00
4904;DHT22;2467;48.142;11.616;2023-03-23T03:18:07;12.40;92.90
4904;DHT22;2467;48.142;11.616;2023-03-23T03:18:45;12.50;92.90
4904;DHT22;2467;48.142;11.616;2023-03-23T03:19:23;12.50;92.90
4904;DHT22;2467;48.142;11.616;2023-03-23T03:19:58;12.50;93.00
4904;DHT22;2467;48.142;11.616;2023-03-23T03:20:31;12.50;93.00
4904;DHT22;2467;48.142;11.616;2023-03-23T03:21:06;12.50;93.00
4904;DHT22;2467;48.142;11.616;2023-03-23T03:21:42;12.50;93.00
4904;DHT22;2467;48.142;11.616;2023-03-23T03:22:14;12.50;93.00
4904;DHT22;2467;48.142;11.616;2023-03-23T03:22:45;12.50;93.00
4904;DHT22;2467;48.142;11.616;2023-03-23T03:23:18;12.50;92.90
4904;DHT22;2467;48.142;11.616;2023-03-23T03:23:50;12.50;92.80
4904;DHT22;2467;48.142;11.616;2023-03-23T03:24:25;12.50;92.70
4904;DHT22;2467;48.142;11.616;2023-03-23T03:25:00;12.60;92.70
4904;DHT22;2467;48.142;11.616;2023-03-23T03:25:31;12.50;92.70
4904;DHT22;2467;48.142;11.616;2023-03-23T03:26:03;12.60;92.60
4904;DHT22;2467;48.142;11.616;2023-03-23T03:26:36;12.50;92.50
4904;DHT22;2467;48.142;11.616;2023-03-23T03:27:11;12.50;92.50
4904;DHT22;2467;48.142;11.616;2023-03-23T03:27:47;12.50;92.50
4904;DHT22;2467;48.142;11.616;2023-03-23T03:28:22;12.50;92.50
4904;DHT22;2467;48.142;11.616;2023-03-23T03:28:55;12.50;92.50
4904;DHT22;2467;48.142;11.616;2023-03-23T03:29:28;12.40;92.80
4904;DHT22;2467;48.142;11.616;2023-03-23T03:30:05;12.40;92.50
4904;DHT22;2467;48.142;11.616;2023-03-23T03:30:38;12.40;92.60
4904;DHT22;2467;48.142;11.616;2023-03-23T03:31:10;12.40;92.70
4904;DHT22;2467;48.142;11.616;2023-03-23T03:31:41;12.30;92.70
4904;DHT22;2467;48.142;11.616;2023-03-23T03:32:19;12.40;92.90
4904;DHT22;2467;48.142;11.616;2023-03-23T03:32:52;12.40;92.90
4904;DHT22;2467;48.142;11.616;2023-03-23T03:33:25;12.40;93.00
4904;DHT22;2467;48.142;11.616;2023-03-23T03:33:56;12.30;93.10
4904;DHT22;2467;48.142;11.616;2023-03-23T03:34:33;12.40;93.20
4904;DHT22;2467;48.142;11.616;2023-03-23T03:35:04;12.40;93.20
4904;DHT22;2467;48.142;11.616;2023-03-23T03:35:37;12.40;93.30
4904;DHT22;2467;48.142;11.616;2023-03-23T03:36:15;12.40;93.30
4904;DHT22;2467;48.142;11.616;2023-03-23T03:36:48;12.40;93.40
4904;DHT22;2467;48.142;11.616;2023-03-23T03:37:21;12.40;93.50
4904;DHT22;2467;48.142;11.616;2023-03-23T03:37:53;12.40;93.60
4904;DHT22;2467;48.142;11.616;2023-03-23T03:38:25;12.40;93.60
4904;DHT22;2467;48.142;11.616;2023-03-23T03:38:56;12.50;93.70
4904;DHT22;2467;48.142;11.616;2023-03-23T03:39:30;12.50;93.60
4904;DHT22;2467;48.142;11.616;2023-03-23T03:40:06;12.50;93.60
4904;DHT22;2467;48.142;11.616;2023-03-23T03:40:41;12.50;93.60
4904;DHT22;2467;48.142;11.616;2023-03-23T03:41:13;12.50;93.50
4904;DHT22;2467;48.142;11.616;2023-03-23T03:41:44;12.50;93.80
4904;DHT22;2467;48.142;11.616;2023-03-23T03:42:15;12.50;93.50